createdAt,value
2022-09-25T00:01:27.547Z,99211.97
2022-09-25T00:03:55.867Z,99211.47
2022-09-25T00:06:25.336Z,99208.00
2022-09-25T00:08:54.072Z,99207.47
2022-09-25T00:11:24.938Z,99205.28
2022-09-25T00:13:53.651Z,99202.59
2022-09-25T00:16:23.652Z,99203.59
2022-09-25T00:19:11.070Z,99200.94
2022-09-25T00:21:39.774Z,99205.41
2022-09-25T00:24:09.996Z,99209.13
2022-09-25T00:26:40.385Z,99206.78
2022-09-25T00:29:10.782Z,99201.25
2022-09-25T00:31:38.922Z,99197.94
2022-09-25T00:34:08.636Z,99196.25
2022-09-25T00:36:36.806Z,99193.38
2022-09-25T00:39:05.285Z,99199.44
2022-09-25T00:41:33.670Z,99193.22
2022-09-25T00:44:03.818Z,99190.38
2022-09-25T00:46:36.237Z,99193.88
2022-09-25T00:49:08.526Z,99195.06
2022-09-25T00:51:41.349Z,99190.00
2022-09-25T00:54:12.664Z,99194.69
2022-09-25T00:56:44.031Z,99194.03
2022-09-25T00:59:14.588Z,99198.88
2022-09-25T01:01:42.782Z,99198.41
2022-09-25T01:04:13.150Z,99205.44
2022-09-25T01:06:42.033Z,99200.59
2022-09-25T01:09:10.296Z,99196.72
2022-09-25T01:11:38.676Z,99194.53
2022-09-25T01:14:07.473Z,99185.69
2022-09-25T01:16:39.813Z,99188.72
2022-09-25T01:19:17.161Z,99183.19
2022-09-25T01:21:49.529Z,99186.03
2022-09-25T01:24:41.015Z,99184.22
2022-09-25T01:27:35.961Z,99185.41
2022-09-25T01:30:10.867Z,99185.34
2022-09-25T01:32:46.229Z,99190.88
2022-09-25T01:35:18.046Z,99181.50
2022-09-25T01:37:47.549Z,99183.84
2022-09-25T01:40:19.724Z,99183.34
2022-09-25T01:42:50.761Z,99171.94
2022-09-25T01:45:22.414Z,99171.81
2022-09-25T01:47:52.107Z,99174.63
2022-09-25T01:50:24.090Z,99187.22
2022-09-25T01:52:54.623Z,99186.59
2022-09-25T01:55:25.459Z,99182.03
2022-09-25T01:57:58.281Z,99180.34
2022-09-25T02:00:27.847Z,99182.38
2022-09-25T02:02:58.919Z,99183.75
2022-09-25T02:05:31.110Z,99192.81
2022-09-25T02:08:02.126Z,99187.28
2022-09-25T02:10:34.834Z,99190.94
2022-09-25T02:13:08.689Z,99190.94
2022-09-25T02:15:39.779Z,99195.75
2022-09-25T02:18:27.667Z,99206.97
2022-09-25T02:21:00.106Z,99188.09
2022-09-25T02:23:31.739Z,99191.75
2022-09-25T02:26:06.197Z,99190.63
2022-09-25T02:28:35.106Z,99186.09
2022-09-25T02:31:08.461Z,99190.97
2022-09-25T02:33:37.136Z,99187.66
2022-09-25T02:36:07.218Z,99177.56
2022-09-25T02:38:36.542Z,99177.09
2022-09-25T02:41:15.024Z,99173.75
2022-09-25T02:43:49.347Z,99176.03
2022-09-25T02:46:25.812Z,99189.31
2022-09-25T02:48:57.473Z,99166.81
2022-09-25T02:51:30.809Z,99170.72
2022-09-25T02:54:07.827Z,99161.97
2022-09-25T02:56:38.772Z,99170.50
2022-09-25T02:59:09.305Z,99173.22
2022-09-25T03:01:40.881Z,99175.06
2022-09-25T03:04:10.034Z,99176.91
2022-09-25T03:06:38.853Z,99176.25
2022-09-25T03:09:08.945Z,99189.44
2022-09-25T03:11:43.339Z,99191.09
2022-09-25T03:14:12.039Z,99202.50
2022-09-25T03:16:46.725Z,99199.50
2022-09-25T03:19:15.188Z,99195.78
2022-09-25T03:21:43.665Z,99197.16
2022-09-25T03:24:11.873Z,99189.63
2022-09-25T03:26:40.607Z,99181.41
2022-09-25T03:29:09.161Z,99179.78
2022-09-25T03:31:37.569Z,99167.66
2022-09-25T03:34:07.111Z,99165.38
2022-09-25T03:36:35.811Z,99159.00
2022-09-25T03:39:04.608Z,99156.47
2022-09-25T03:41:35.437Z,99158.50
2022-09-25T03:44:04.153Z,99160.34
2022-09-25T03:46:34.018Z,99165.00
2022-09-25T03:49:02.987Z,99163.31
2022-09-25T03:51:33.400Z,99161.97
2022-09-25T03:54:01.614Z,99166.16
2022-09-25T03:56:30.347Z,99159.84
2022-09-25T03:58:59.840Z,99162.53
2022-09-25T04:01:29.629Z,99157.66
2022-09-25T04:03:58.259Z,99155.84
2022-09-25T04:06:27.368Z,99154.13
2022-09-25T04:08:56.902Z,99149.78
2022-09-25T04:11:26.203Z,99152.50
2022-09-25T04:13:54.276Z,99151.81
2022-09-25T04:16:22.631Z,99149.97
2022-09-25T04:18:51.350Z,99157.16
2022-09-25T04:21:19.625Z,99155.84
2022-09-25T04:24:07.909Z,99154.47
2022-09-25T04:26:37.582Z,99156.34
2022-09-25T04:29:05.859Z,99161.03
2022-09-25T04:31:34.957Z,99172.28
2022-09-25T04:34:02.232Z,99167.22
2022-09-25T04:36:30.492Z,99166.09
2022-09-25T04:38:58.691Z,99166.25
2022-09-25T04:41:27.127Z,99161.19
2022-09-25T04:43:56.639Z,99173.44
2022-09-25T04:46:24.780Z,99169.09
2022-09-25T04:48:53.021Z,99168.59
2022-09-25T04:51:22.080Z,99174.13
2022-09-25T04:53:50.332Z,99181.16
2022-09-25T04:56:18.360Z,99180.81
2022-09-25T04:58:47.517Z,99177.78
2022-09-25T05:01:19.081Z,99180.47
2022-09-25T05:03:49.278Z,99178.47
2022-09-25T05:06:17.491Z,99181.47
2022-09-25T05:08:45.551Z,99181.13
2022-09-25T05:11:13.721Z,99183.31
2022-09-25T05:13:46.884Z,99192.00
2022-09-25T05:16:15.238Z,99193.69
2022-09-25T05:18:44.708Z,99193.53
2022-09-25T05:21:13.096Z,99197.88
2022-09-25T05:23:41.294Z,99190.84
2022-09-25T05:26:11.201Z,99185.81
2022-09-25T05:28:39.424Z,99192.34
2022-09-25T05:31:07.778Z,99191.19
2022-09-25T05:33:36.524Z,99191.50
2022-09-25T05:36:07.736Z,99196.34
2022-09-25T05:38:37.277Z,99192.84
2022-09-25T05:41:06.859Z,99191.81
2022-09-25T05:43:36.034Z,99198.50
2022-09-25T05:46:04.207Z,99207.53
2022-09-25T05:48:32.430Z,99209.41
2022-09-25T05:51:00.621Z,99210.75
2022-09-25T05:53:31.089Z,99218.63
2022-09-25T05:56:01.163Z,99218.31
2022-09-25T05:58:31.271Z,99223.44
2022-09-25T06:01:02.118Z,99212.84
2022-09-25T06:03:30.383Z,99209.53
2022-09-25T06:05:58.564Z,99210.16
2022-09-25T06:08:27.465Z,99197.97
2022-09-25T06:11:00.935Z,99196.41
2022-09-25T06:13:31.267Z,99192.19
2022-09-25T06:15:59.460Z,99193.41
2022-09-25T06:18:28.286Z,99185.41
2022-09-25T06:21:01.621Z,99188.38
2022-09-25T06:23:29.948Z,99185.34
2022-09-25T06:26:03.075Z,99194.06
2022-09-25T06:28:31.535Z,99187.13
2022-09-25T06:31:01.580Z,99192.03
2022-09-25T06:33:30.089Z,99188.50
2022-09-25T06:35:58.244Z,99195.41
2022-09-25T06:38:26.477Z,99201.09
2022-09-25T06:40:59.300Z,99193.03
2022-09-25T06:43:30.179Z,99190.31
2022-09-25T06:46:02.612Z,99204.09
2022-09-25T06:48:31.054Z,99202.38
2022-09-25T06:50:59.857Z,99193.09
2022-09-25T06:53:28.410Z,99186.78
2022-09-25T06:55:59.003Z,99187.53
2022-09-25T06:58:30.513Z,99188.41
2022-09-25T07:00:59.058Z,99178.56
2022-09-25T07:03:44.452Z,99167.59
2022-09-25T07:06:14.267Z,99168.44
2022-09-25T07:08:43.869Z,99172.75
2022-09-25T07:11:14.387Z,99173.50
2022-09-25T07:13:45.121Z,99174.63
2022-09-25T07:16:15.308Z,99168.03
2022-09-25T07:18:44.911Z,99183.56
2022-09-25T07:21:14.802Z,99181.16
2022-09-25T07:23:43.219Z,99178.19
2022-09-25T07:26:13.044Z,99175.44
2022-09-25T07:28:43.812Z,99177.41
2022-09-25T07:31:16.457Z,99160.94
2022-09-25T07:33:45.122Z,99152.06
2022-09-25T07:36:13.931Z,99149.13
2022-09-25T07:38:42.238Z,99157.66
2022-09-25T07:41:13.137Z,99164.81
2022-09-25T07:43:43.535Z,99174.50
2022-09-25T07:46:12.288Z,99178.38
2022-09-25T07:48:40.450Z,99172.94
2022-09-25T07:51:11.888Z,99178.84
2022-09-25T07:53:40.761Z,99179.97
2022-09-25T07:56:09.324Z,99187.25
2022-09-25T07:58:37.516Z,99185.88
2022-09-25T08:01:08.577Z,99190.72
2022-09-25T08:03:36.862Z,99198.38
2022-09-25T08:06:06.657Z,99210.97
2022-09-25T08:08:35.493Z,99208.63
2022-09-25T08:11:03.922Z,99206.13
2022-09-25T08:13:33.504Z,99197.13
2022-09-25T08:16:03.433Z,99199.44
2022-09-25T08:18:33.072Z,99192.38
2022-09-25T08:21:02.903Z,99193.47
2022-09-25T08:23:31.455Z,99189.69
2022-09-25T08:25:59.761Z,99204.69
2022-09-25T08:28:28.000Z,99193.91
2022-09-25T08:30:56.172Z,99192.38
2022-09-25T08:33:24.296Z,99192.63
2022-09-25T08:35:58.571Z,99197.56
2022-09-25T08:38:27.021Z,99192.63
2022-09-25T08:40:57.806Z,99193.72
2022-09-25T08:43:27.154Z,99183.75
2022-09-25T08:46:14.257Z,99192.38
2022-09-25T08:49:03.366Z,99202.13
2022-09-25T08:51:34.424Z,99209.78
2022-09-25T08:54:03.809Z,99207.44
2022-09-25T08:56:33.296Z,99206.69
2022-09-25T08:59:05.784Z,99206.47
2022-09-25T09:01:43.786Z,99209.00
2022-09-25T09:04:18.212Z,99203.56
2022-09-25T09:07:24.668Z,99200.34
2022-09-25T09:09:48.744Z,99197.75
2022-09-25T09:12:21.402Z,99200.16
2022-09-25T09:14:53.781Z,99194.06
2022-09-25T09:17:26.277Z,99187.56
2022-09-25T09:20:14.058Z,99182.84
2022-09-25T09:22:48.848Z,99173.50
2022-09-25T09:25:29.679Z,99168.75
2022-09-25T09:28:20.905Z,99177.13
2022-09-25T09:30:57.457Z,99178.19
2022-09-25T09:33:35.937Z,99182.13
2022-09-25T09:36:09.937Z,99174.84
2022-09-25T09:38:49.574Z,99173.47
2022-09-25T09:41:33.562Z,99176.31
2022-09-25T09:44:12.366Z,99168.81
2022-09-25T09:46:48.724Z,99170.34
2022-09-25T09:49:21.489Z,99167.75
2022-09-25T09:51:55.686Z,99165.13
2022-09-25T09:54:32.973Z,99167.91
2022-09-25T09:57:06.509Z,99158.97
2022-09-25T09:59:43.172Z,99168.25
2022-09-25T10:02:22.119Z,99174.97
2022-09-25T10:04:51.055Z,99174.88
2022-09-25T10:07:22.806Z,99174.69
2022-09-25T10:09:52.533Z,99172.81
2022-09-25T10:12:29.197Z,99177.00
2022-09-25T10:14:58.924Z,99176.63
2022-09-25T10:17:29.879Z,99179.50
2022-09-25T10:19:59.793Z,99177.13
2022-09-25T10:22:28.775Z,99169.13
2022-09-25T10:25:02.202Z,99174.13
2022-09-25T10:27:32.964Z,99171.56
2022-09-25T10:30:22.563Z,99177.75
2022-09-25T10:32:58.595Z,99161.19
2022-09-25T10:35:29.454Z,99167.13
2022-09-25T10:37:59.631Z,99164.84
2022-09-25T10:40:32.787Z,99158.66
2022-09-25T10:43:17.070Z,99161.53
2022-09-25T10:45:45.618Z,99149.38
2022-09-25T10:48:50.249Z,99157.94
2022-09-25T10:51:21.514Z,99165.84
2022-09-25T10:53:50.736Z,99154.91
2022-09-25T10:56:22.067Z,99145.78
2022-09-25T10:58:54.993Z,99135.31
2022-09-25T11:01:31.742Z,99137.19
2022-09-25T11:04:00.221Z,99131.13
2022-09-25T11:06:29.885Z,99122.22
2022-09-25T11:09:09.198Z,99125.22
2022-09-25T11:11:39.412Z,99118.25
2022-09-25T11:14:14.945Z,99115.28
2022-09-25T11:16:46.878Z,99103.03
2022-09-25T11:19:17.145Z,99097.03
2022-09-25T11:21:50.147Z,99106.31
2022-09-25T11:24:23.822Z,99104.63
2022-09-25T11:26:59.269Z,99110.84
2022-09-25T11:29:44.421Z,99106.09
2022-09-25T11:32:19.964Z,99111.03
2022-09-25T11:35:24.562Z,99117.06
2022-09-25T11:38:02.671Z,99127.41
2022-09-25T11:40:53.262Z,99122.63
2022-09-25T11:43:30.517Z,99120.38
2022-09-25T11:46:02.796Z,99122.69
2022-09-25T11:48:37.396Z,99126.78
2022-09-25T11:51:11.744Z,99121.50
2022-09-25T11:53:46.108Z,99108.44
2022-09-25T11:56:23.770Z,99120.31
2022-09-25T11:59:02.140Z,99110.88
2022-09-25T12:01:34.666Z,99109.41
2022-09-25T12:04:39.439Z,99107.31
2022-09-25T12:07:34.664Z,99102.78
2022-09-25T12:10:16.249Z,99103.44
2022-09-25T12:12:53.327Z,99104.63
2022-09-25T12:15:27.121Z,99098.44
2022-09-25T12:18:03.814Z,99104.34
2022-09-25T12:20:36.236Z,99107.69
2022-09-25T12:23:16.332Z,99107.78
2022-09-25T12:25:59.866Z,99104.91
2022-09-25T12:28:33.568Z,99097.66
2022-09-25T12:31:09.110Z,99096.47
2022-09-25T12:33:44.813Z,99090.06
2022-09-25T12:36:16.864Z,99079.59
2022-09-25T12:38:49.198Z,99072.09
2022-09-25T12:41:20.656Z,99063.09
2022-09-25T12:43:53.178Z,99067.03
2022-09-25T12:46:27.040Z,99057.78
2022-09-25T12:48:59.425Z,99067.69
2022-09-25T12:51:34.213Z,99073.72
2022-09-25T12:54:05.529Z,99065.66
2022-09-25T12:56:38.508Z,99059.75
2022-09-25T12:59:13.737Z,99057.59
2022-09-25T13:01:46.791Z,99066.50
2022-09-25T13:04:26.039Z,99060.59
2022-09-25T13:06:58.234Z,99056.59
2022-09-25T13:09:32.145Z,99058.91
2022-09-25T13:12:04.139Z,99055.22
2022-09-25T13:14:35.843Z,99048.56
2022-09-25T13:17:05.397Z,99051.47
2022-09-25T13:19:34.843Z,99053.53
2022-09-25T13:22:05.831Z,99050.97
2022-09-25T13:24:40.458Z,99035.72
2022-09-25T13:27:15.072Z,99043.88
2022-09-25T13:29:43.458Z,99035.97
2022-09-25T13:32:19.062Z,99038.22
2022-09-25T13:34:47.620Z,99028.56
2022-09-25T13:37:16.814Z,99022.25
2022-09-25T13:40:07.489Z,99026.44
2022-09-25T13:42:38.503Z,99031.34
2022-09-25T13:45:32.418Z,99033.41
2022-09-25T13:48:10.083Z,99030.31
2022-09-25T13:50:40.436Z,99025.53
2022-09-25T13:53:23.469Z,99040.00
2022-09-25T13:56:15.040Z,99031.47
2022-09-25T13:59:03.692Z,99040.03
2022-09-25T14:01:37.722Z,99026.69
2022-09-25T14:04:12.166Z,99030.28
2022-09-25T14:06:42.180Z,99022.19
2022-09-25T14:09:15.206Z,99025.41
2022-09-25T14:11:45.699Z,99023.28
2022-09-25T14:14:27.459Z,99023.09
2022-09-25T14:16:58.523Z,99011.47
2022-09-25T14:19:32.079Z,99010.31
2022-09-25T14:22:01.842Z,99004.78
2022-09-25T14:24:31.358Z,99008.84
2022-09-25T14:27:01.217Z,99008.13
2022-09-25T14:29:32.868Z,99000.47
2022-09-25T14:32:25.839Z,98997.75
2022-09-25T14:35:13.961Z,98991.78
2022-09-25T14:37:57.420Z,98990.81
2022-09-25T14:40:34.077Z,98993.56
2022-09-25T14:43:14.946Z,98990.47
2022-09-25T14:46:02.097Z,98985.94
2022-09-25T14:48:35.163Z,98980.88
2022-09-25T14:51:06.720Z,98971.91
2022-09-25T14:53:38.305Z,98974.63
2022-09-25T14:56:09.546Z,98975.41
2022-09-25T14:58:38.585Z,98973.06
2022-09-25T15:01:15.055Z,98984.16
2022-09-25T15:03:46.848Z,98974.28
2022-09-25T15:06:25.310Z,98972.41
2022-09-25T15:08:53.835Z,98979.47
2022-09-25T15:11:22.999Z,98984.06
2022-09-25T15:13:51.215Z,98977.03
2022-09-25T15:16:38.719Z,98963.72
2022-09-25T15:19:12.596Z,98961.97
2022-09-25T15:21:43.968Z,98978.31
2022-09-25T15:24:16.204Z,98977.72
2022-09-25T15:26:49.846Z,98975.84
2022-09-25T15:29:23.380Z,98970.81
2022-09-25T15:31:52.374Z,98967.84
2022-09-25T15:34:25.217Z,98969.75
2022-09-25T15:36:55.216Z,98972.53
2022-09-25T15:39:25.512Z,98962.41
2022-09-25T15:41:53.899Z,98966.84
2022-09-25T15:44:23.725Z,98958.50
2022-09-25T15:46:52.886Z,98958.69
2022-09-25T15:49:23.501Z,98961.75
2022-09-25T15:51:58.306Z,98960.16
2022-09-25T15:54:33.986Z,98957.78
2022-09-25T15:57:07.162Z,98957.41
2022-09-25T15:59:37.313Z,98962.88
2022-09-25T16:02:35.842Z,98952.06
2022-09-25T16:05:04.329Z,98956.69
2022-09-25T16:07:36.259Z,98952.06
2022-09-25T16:10:07.811Z,98964.28
2022-09-25T16:12:49.360Z,98967.09
2022-09-25T16:15:46.806Z,98965.56
2022-09-25T16:18:27.548Z,98968.94
2022-09-25T16:20:58.063Z,98960.41
2022-09-25T16:23:30.258Z,98964.78
2022-09-25T16:25:58.769Z,98966.63
2022-09-25T16:28:29.463Z,98965.31
2022-09-25T16:31:00.508Z,98962.09
2022-09-25T16:33:31.297Z,98962.34
2022-09-25T16:36:18.185Z,98955.75
2022-09-25T16:39:06.199Z,98957.25
2022-09-25T16:41:35.997Z,98943.72
2022-09-25T16:44:14.257Z,98948.91
2022-09-25T16:46:42.915Z,98944.47
2022-09-25T16:49:12.320Z,98950.50
2022-09-25T16:51:45.992Z,98953.72
2022-09-25T16:54:17.276Z,98963.94
2022-09-25T16:56:48.290Z,98962.16
2022-09-25T16:59:18.727Z,98956.22
2022-09-25T17:01:48.185Z,98953.63
2022-09-25T17:04:16.978Z,98966.97
2022-09-25T17:06:47.557Z,98964.38
2022-09-25T17:09:18.757Z,98952.34
2022-09-25T17:11:50.117Z,98954.53
2022-09-25T17:14:23.992Z,98959.09
2022-09-25T17:16:52.926Z,98953.19
2022-09-25T17:19:21.717Z,98956.50
2022-09-25T17:21:52.233Z,98951.84
2022-09-25T17:24:23.837Z,98966.25
2022-09-25T17:26:52.767Z,98967.97
2022-09-25T17:29:21.044Z,98970.09
2022-09-25T17:31:49.265Z,98966.88
2022-09-25T17:34:18.941Z,98962.72
2022-09-25T17:36:47.214Z,98965.28
2022-09-25T17:39:15.482Z,98960.88
2022-09-25T17:41:45.249Z,98954.94
2022-09-25T17:44:16.925Z,98959.66
2022-09-25T17:46:45.222Z,98959.19
2022-09-25T17:49:13.570Z,98960.75
2022-09-25T17:51:42.157Z,98960.50
2022-09-25T17:54:11.953Z,98956.41
2022-09-25T17:56:42.627Z,98948.81
2022-09-25T17:59:12.275Z,98957.03
2022-09-25T18:01:40.704Z,98954.75
2022-09-25T18:04:19.464Z,98951.13
2022-09-25T18:06:47.942Z,98947.81
2022-09-25T18:09:16.425Z,98953.72
2022-09-25T18:11:44.913Z,98957.03
2022-09-25T18:14:16.682Z,98964.09
2022-09-25T18:16:45.849Z,98961.97
2022-09-25T18:19:36.139Z,98963.91
2022-09-25T18:22:22.520Z,98963.75
2022-09-25T18:24:54.633Z,98964.72
2022-09-25T18:27:23.029Z,98971.63
2022-09-25T18:29:52.814Z,98970.94
2022-09-25T18:32:21.052Z,98975.41
2022-09-25T18:34:49.260Z,98965.38
2022-09-25T18:37:17.698Z,98958.38
2022-09-25T18:39:48.019Z,98963.56
2022-09-25T18:42:16.393Z,98967.59
2022-09-25T18:44:44.595Z,98966.31
2022-09-25T18:47:14.947Z,98966.97
2022-09-25T18:49:43.794Z,98972.16
2022-09-25T18:52:11.919Z,98967.41
2022-09-25T18:54:42.532Z,98970.09
2022-09-25T18:57:11.742Z,98964.91
2022-09-25T18:59:39.991Z,98960.28
2022-09-25T19:02:11.511Z,98959.66
2022-09-25T19:04:41.179Z,98955.94
2022-09-25T19:07:09.667Z,98953.34
2022-09-25T19:09:38.034Z,98951.97
2022-09-25T19:12:07.402Z,98943.53
2022-09-25T19:14:36.037Z,98941.59
2022-09-25T19:17:04.901Z,98931.13
2022-09-25T19:19:35.453Z,98938.72
2022-09-25T19:22:05.100Z,98933.25
2022-09-25T19:24:36.614Z,98934.56
2022-09-25T19:27:06.534Z,98929.56
2022-09-25T19:29:36.333Z,98933.06
2022-09-25T19:32:05.904Z,98925.84
2022-09-25T19:34:35.011Z,98933.81
2022-09-25T19:37:04.614Z,98938.53
2022-09-25T19:39:54.316Z,98937.81
2022-09-25T19:42:22.977Z,98936.50
2022-09-25T19:44:51.205Z,98938.16
2022-09-25T19:47:19.602Z,98932.50
2022-09-25T19:49:47.840Z,98932.88
2022-09-25T19:52:20.573Z,98919.91
2022-09-25T19:54:48.801Z,98918.16
2022-09-25T19:57:17.025Z,98913.34
2022-09-25T19:59:45.228Z,98917.22
2022-09-25T20:02:14.006Z,98914.38
2022-09-25T20:04:44.080Z,98915.47
2022-09-25T20:07:15.567Z,98911.38
2022-09-25T20:09:45.371Z,98918.91
2022-09-25T20:12:13.538Z,98916.50
2022-09-25T20:14:41.653Z,98914.44
2022-09-25T20:17:10.402Z,98902.78
2022-09-25T20:19:38.710Z,98901.31
2022-09-25T20:22:06.854Z,98893.81
2022-09-25T20:24:35.033Z,98891.84
2022-09-25T20:27:04.600Z,98895.66
2022-09-25T20:29:32.909Z,98890.84
2022-09-25T20:32:01.267Z,98895.56
2022-09-25T20:34:29.424Z,98891.13
2022-09-25T20:36:57.540Z,98893.31
2022-09-25T20:39:27.517Z,98893.31
2022-09-25T20:41:55.997Z,98896.50
2022-09-25T20:44:25.442Z,98889.47
2022-09-25T20:46:53.625Z,98885.94
2022-09-25T20:49:22.183Z,98885.28
2022-09-25T20:51:50.369Z,98884.47
2022-09-25T20:54:18.523Z,98877.16
2022-09-25T20:56:46.995Z,98874.09
2022-09-25T20:59:18.169Z,98883.44
2022-09-25T21:01:47.937Z,98883.44
2022-09-25T21:04:18.235Z,98874.09
2022-09-25T21:06:46.757Z,98873.97
2022-09-25T21:09:20.587Z,98876.03
2022-09-25T21:11:48.977Z,98870.56
2022-09-25T21:14:19.652Z,98880.66
2022-09-25T21:16:49.982Z,98876.13
2022-09-25T21:19:19.714Z,98875.94
2022-09-25T21:21:48.519Z,98872.81
2022-09-25T21:24:18.392Z,98870.75
2022-09-25T21:26:46.944Z,98874.16
2022-09-25T21:29:16.892Z,98874.66
2022-09-25T21:31:49.847Z,98880.94
2022-09-25T21:34:20.583Z,98874.91
2022-09-25T21:36:49.229Z,98877.34
2022-09-25T21:39:19.099Z,98872.16
2022-09-25T21:41:48.905Z,98869.53
2022-09-25T21:44:19.254Z,98869.34
2022-09-25T21:46:47.751Z,98863.34
2022-09-25T21:49:17.590Z,98870.84
2022-09-25T21:51:48.152Z,98873.91
2022-09-25T21:54:17.158Z,98864.28
2022-09-25T21:56:45.556Z,98869.09
2022-09-25T21:59:14.305Z,98867.31
2022-09-25T22:01:43.178Z,98871.22
2022-09-25T22:04:13.592Z,98857.50
2022-09-25T22:06:43.802Z,98865.75
2022-09-25T22:09:15.022Z,98855.94
2022-09-25T22:11:43.699Z,98862.88
2022-09-25T22:14:16.130Z,98856.31
2022-09-25T22:16:46.094Z,98862.31
2022-09-25T22:19:16.350Z,98863.25
2022-09-25T22:21:45.958Z,98862.69
2022-09-25T22:24:16.817Z,98866.84
2022-09-25T22:26:46.351Z,98863.53
2022-09-25T22:29:14.755Z,98863.91
2022-09-25T22:31:44.325Z,98858.97
2022-09-25T22:34:17.349Z,98856.69
2022-09-25T22:36:45.721Z,98858.44
2022-09-25T22:39:17.574Z,98854.28
2022-09-25T22:41:46.033Z,98859.94
2022-09-25T22:44:14.446Z,98862.69
2022-09-25T22:46:42.670Z,98851.41
2022-09-25T22:49:10.719Z,98854.56
2022-09-25T22:51:38.944Z,98847.06
2022-09-25T22:54:07.126Z,98845.50
2022-09-25T22:56:37.026Z,98842.13
2022-09-25T22:59:07.198Z,98847.06
2022-09-25T23:01:46.962Z,98852.13
2022-09-25T23:04:16.749Z,98847.13
2022-09-25T23:06:45.387Z,98845.19
2022-09-25T23:09:15.505Z,98842.44
2022-09-25T23:11:45.601Z,98848.44
2022-09-25T23:14:17.089Z,98848.91
2022-09-25T23:16:46.185Z,98846.97
2022-09-25T23:19:15.016Z,98848.44
2022-09-25T23:21:43.833Z,98839.94
2022-09-25T23:24:13.335Z,98850.66
2022-09-25T23:26:41.830Z,98850.13
2022-09-25T23:29:12.957Z,98854.94
2022-09-25T23:31:41.402Z,98851.97
2022-09-25T23:34:09.800Z,98853.34
2022-09-25T23:36:38.560Z,98849.75
2022-09-25T23:39:08.545Z,98850.19
2022-09-25T23:41:38.438Z,98842.25
2022-09-25T23:44:08.263Z,98844.19
2022-09-25T23:46:41.712Z,98846.22
2022-09-25T23:49:10.764Z,98831.88
2022-09-25T23:51:39.354Z,98836.50
2022-09-25T23:54:07.593Z,98832.25
2022-09-25T23:56:36.398Z,98833.28
2022-09-25T23:59:05.283Z,98832.81
